sensor_id;sensor_type;location;lat;lon;timestamp;temperature;humidity
7240;DHT22;3661;53.288;10.458;2024-02-21T00:01:24;8.80;99.90
7240;DHT22;3661;53.288;10.458;2024-02-21T00:03:56;8.70;99.90
7240;DHT22;3661;53.288;10.458;2024-02-21T00:06:28;8.80;99.90
7240;DHT22;3661;53.288;10.458;2024-02-21T00:09:02;8.80;99.90
7240;DHT22;3661;53.288;10.458;2024-02-21T00:11:34;8.80;99.90
7240;DHT22;3661;53.288;10.458;2024-02-21T00:14:06;8.70;99.90
7240;DHT22;3661;53.288;10.458;2024-02-21T00:16:38;8.70;99.90
7240;DHT22;3661;53.288;10.458;2024-02-21T00:19:10;8.70;99.90
7240;DHT22;3661;53.288;10.458;2024-02-21T00:21:42;8.70;99.90
7240;DHT22;3661;53.288;10.458;2024-02-21T00:24:15;8.70;99.90
7240;DHT22;3661;53.288;10.458;2024-02-21T00:26:47;8.70;99.90
7240;DHT22;3661;53.288;10.458;2024-02-21T00:29:19;8.70;99.90
7240;DHT22;3661;53.288;10.458;2024-02-21T00:31:52;8.70;99.90
7240;DHT22;3661;53.288;10.458;2024-02-21T00:34:24;8.70;99.90
7240;DHT22;3661;53.288;10.458;2024-02-21T00:36:56;8.70;99.90
7240;DHT22;3661;53.288;10.458;2024-02-21T00:39:29;8.70;99.90
7240;DHT22;3661;53.288;10.458;2024-02-21T00:42:01;8.70;99.90
7240;DHT22;3661;53.288;10.458;2024-02-21T00:44:33;8.60;99.90
7240;DHT22;3661;53.288;10.458;2024-02-21T00:47:06;8.70;99.90
7240;DHT22;3661;53.288;10.458;2024-02-21T00:49:38;8.70;99.90
7240;DHT22;3661;53.288;10.458;2024-02-21T00:52:10;8.70;99.90
7240;DHT22;3661;53.288;10.458;2024-02-21T00:54:43;8.70;99.90
7240;DHT22;3661;53.288;10.458;2024-02-21T00:57:15;8.60;99.90
7240;DHT22;3661;53.288;10.458;2024-02-21T00:59:47;8.60;99.90
7240;DHT22;3661;53.288;10.458;2024-02-21T01:02:19;8.60;99.90
7240;DHT22;3661;53.288;10.458;2024-02-21T01:04:52;8.60;99.90
7240;DHT22;3661;53.288;10.458;2024-02-21T01:07:24;8.60;99.90
7240;DHT22;3661;53.288;10.458;2024-02-21T01:09:57;8.60;99.90
7240;DHT22;3661;53.288;10.458;2024-02-21T01:12:29;8.60;99.90
7240;DHT22;3661;53.288;10.458;2024-02-21T01:15:01;8.60;99.90
7240;DHT22;3661;53.288;10.458;2024-02-21T01:17:33;8.60;99.90
7240;DHT22;3661;53.288;10.458;2024-02-21T01:20:06;8.60;99.90
7240;DHT22;3661;53.288;10.458;2024-02-21T01:22:41;8.60;99.90
7240;DHT22;3661;53.288;10.458;2024-02-21T01:25:15;8.60;99.90
7240;DHT22;3661;53.288;10.458;2024-02-21T01:27:49;8.60;99.90
7240;DHT22;3661;53.288;10.458;2024-02-21T01:30:22;8.60;99.90
7240;DHT22;3661;53.288;10.458;2024-02-21T01:32:54;8.60;99.90
7240;DHT22;3661;53.288;10.458;2024-02-21T01:35:26;8.60;99.90
7240;DHT22;3661;53.288;10.458;2024-02-21T01:37:58;8.60;99.90
7240;DHT22;3661;53.288;10.458;2024-02-21T01:40:31;8.60;99.90
7240;DHT22;3661;53.288;10.458;2024-02-21T01:43:04;8.60;99.90
7240;DHT22;3661;53.288;10.458;2024-02-21T01:45:50;8.60;99.90
7240;DHT22;3661;53.288;10.458;2024-02-21T01:48:22;8.60;99.90
7240;DHT22;3661;53.288;10.458;2024-02-21T01:50:55;8.60;99.90
7240;DHT22;3661;53.288;10.458;2024-02-21T01:53:30;8.60;99.90
7240;DHT22;3661;53.288;10.458;2024-02-21T01:56:04;8.60;99.90
7240;DHT22;3661;53.288;10.458;2024-02-21T01:58:39;8.60;99.90
7240;DHT22;3661;53.288;10.458;2024-02-21T02:01:12;8.60;99.90
7240;DHT22;3661;53.288;10.458;2024-02-21T02:03:45;8.60;99.90
7240;DHT22;3661;53.288;10.458;2024-02-21T02:06:18;8.60;99.90
7240;DHT22;3661;53.288;10.458;2024-02-21T02:08:50;8.60;99.90
7240;DHT22;3661;53.288;10.458;2024-02-21T02:11:24;8.60;99.90
7240;DHT22;3661;53.288;10.458;2024-02-21T02:13:56;8.60;99.90
7240;DHT22;3661;53.288;10.458;2024-02-21T02:16:29;8.60;99.90
7240;DHT22;3661;53.288;10.458;2024-02-21T02:19:01;8.60;99.90
7240;DHT22;3661;53.288;10.458;2024-02-21T02:21:39;8.60;99.90
7240;DHT22;3661;53.288;10.458;2024-02-21T02:24:16;8.60;99.90
7240;DHT22;3661;53.288;10.458;2024-02-21T02:26:48;8.60;99.90
7240;DHT22;3661;53.288;10.458;2024-02-21T02:29:20;8.60;99.90
7240;DHT22;3661;53.288;10.458;2024-02-21T02:31:52;8.60;99.90
7240;DHT22;3661;53.288;10.458;2024-02-21T02:34:24;8.60;99.90
7240;DHT22;3661;53.288;10.458;2024-02-21T02:36:56;8.60;99.90
7240;DHT22;3661;53.288;10.458;2024-02-21T02:39:30;8.60;99.90
7240;DHT22;3661;53.288;10.458;2024-02-21T02:42:02;8.60;99.90
7240;DHT22;3661;53.288;10.458;2024-02-21T02:44:35;8.60;99.90
7240;DHT22;3661;53.288;10.458;2024-02-21T02:47:08;8.60;99.90
7240;DHT22;3661;53.288;10.458;2024-02-21T02:49:40;8.60;99.90
7240;DHT22;3661;53.288;10.458;2024-02-21T02:52:12;8.60;99.90
7240;DHT22;3661;53.288;10.458;2024-02-21T02:54:45;8.60;99.90
7240;DHT22;3661;53.288;10.458;2024-02-21T02:57:22;8.60;99.90
7240;DHT22;3661;53.288;10.458;2024-02-21T02:59:54;8.60;99.90
7240;DHT22;3661;53.288;10.458;2024-02-21T03:02:28;8.60;99.90
7240;DHT22;3661;53.288;10.458;2024-02-21T03:05:12;8.60;99.90
7240;DHT22;3661;53.288;10.458;2024-02-21T03:07:45;8.60;99.90
7240;DHT22;3661;53.288;10.458;2024-02-21T03:10:19;8.60;99.90
7240;DHT22;3661;53.288;10.458;2024-02-21T03:12:51;8.60;99.90
7240;DHT22;3661;53.288;10.458;2024-02-21T03:15:24;8.60;99.90
7240;DHT22;3661;53.288;10.458;2024-02-21T03:17:57;8.60;99.90
7240;DHT22;3661;53.288;10.458;2024-02-21T03:20:29;8.60;99.90
7240;DHT22;3661;53.288;10.458;2024-02-21T03:23:01;8.60;99.90
7240;DHT22;3661;53.288;10.458;2024-02-21T03:25:35;8.60;99.90
7240;DHT22;3661;53.288;10.458;2024-02-21T03:28:07;8.60;99.90
7240;DHT22;3661;53.288;10.458;2024-02-21T03:30:39;8.60;99.90
7240;DHT22;3661;53.288;10.458;2024-02-21T03:33:11;8.60;99.90
7240;DHT22;3661;53.288;10.458;2024-02-21T03:35:43;8.60;99.90
7240;DHT22;3661;53.288;10.458;2024-02-21T03:38:15;8.60;99.90
7240;DHT22;3661;53.288;10.458;2024-02-21T03:40:49;8.60;99.90
7240;DHT22;3661;53.288;10.458;2024-02-21T03:43:21;8.60;99.90
7240;DHT22;3661;53.288;10.458;2024-02-21T03:45:53;8.60;99.90
7240;DHT22;3661;53.288;10.458;2024-02-21T03:48:25;8.60;99.90
7240;DHT22;3661;53.288;10.458;2024-02-21T03:50:58;8.60;99.90
7240;DHT22;3661;53.288;10.458;2024-02-21T03:53:30;8.60;99.90
7240;DHT22;3661;53.288;10.458;2024-02-21T03:56:04;8.60;99.90
7240;DHT22;3661;53.288;10.458;2024-02-21T03:58:37;8.60;99.90
7240;DHT22;3661;53.288;10.458;2024-02-21T04:01:15;8.60;99.90
7240;DHT22;3661;53.288;10.458;2024-02-21T04:03:47;8.60;99.90
7240;DHT22;3661;53.288;10.458;2024-02-21T04:06:19;8.60;99.90
7240;DHT22;3661;53.288;10.458;2024-02-21T04:08:52;8.60;99.90
7240;DHT22;3661;53.288;10.458;2024-02-21T04:11:25;8.60;99.90
7240;DHT22;3661;53.288;10.458;2024-02-21T04:13:57;8.60;99.90
7240;DHT22;3661;53.288;10.458;2024-02-21T04:16:29;8.70;99.90
7240;DHT22;3661;53.288;10.458;2024-02-21T04:19:01;8.60;99.90
7240;DHT22;3661;53.288;10.458;2024-02-21T04:21:34;8.70;99.90
7240;DHT22;3661;53.288;10.458;2024-02-21T04:24:06;8.70;99.90
7240;DHT22;3661;53.288;10.458;2024-02-21T04:26:39;8.70;99.90
7240;DHT22;3661;53.288;10.458;2024-02-21T04:29:12;8.70;99.90
7240;DHT22;3661;53.288;10.458;2024-02-21T04:31:44;8.70;99.90
7240;DHT22;3661;53.288;10.458;2024-02-21T04:34:16;8.70;99.90
7240;DHT22;3661;53.288;10.458;2024-02-21T04:36:48;8.70;99.90
7240;DHT22;3661;53.288;10.458;2024-02-21T04:39:21;8.70;99.90
7240;DHT22;3661;53.288;10.458;2024-02-21T04:41:54;8.70;99.90
7240;DHT22;3661;53.288;10.458;2024-02-21T04:44:26;8.70;99.90
7240;DHT22;3661;53.288;10.458;2024-02-21T04:46:58;8.70;99.90
7240;DHT22;3661;53.288;10.458;2024-02-21T04:49:31;8.70;99.90
7240;DHT22;3661;53.288;10.458;2024-02-21T04:52:04;8.70;99.90
7240;DHT22;3661;53.288;10.458;2024-02-21T04:54:37;8.70;99.90
7240;DHT22;3661;53.288;10.458;2024-02-21T04:57:10;8.70;99.90
7240;DHT22;3661;53.288;10.458;2024-02-21T04:59:47;8.70;99.90
7240;DHT22;3661;53.288;10.458;2024-02-21T05:02:20;8.70;99.90
7240;DHT22;3661;53.288;10.458;2024-02-21T05:04:54;8.70;99.90
7240;DHT22;3661;53.288;10.458;2024-02-21T05:07:27;8.70;99.90
7240;DHT22;3661;53.288;10.458;2024-02-21T05:09:59;8.70;99.90
7240;DHT22;3661;53.288;10.458;2024-02-21T05:12:32;8.70;99.90
7240;DHT22;3661;53.288;10.458;2024-02-21T05:15:05;8.70;99.90
7240;DHT22;3661;53.288;10.458;2024-02-21T05:17:38;8.70;99.90
7240;DHT22;3661;53.288;10.458;2024-02-21T05:20:11;8.70;99.90
7240;DHT22;3661;53.288;10.458;2024-02-21T05:22:43;8.70;99.90
7240;DHT22;3661;53.288;10.458;2024-02-21T05:25:15;8.60;99.90
7240;DHT22;3661;53.288;10.458;2024-02-21T05:27:51;8.70;99.90
7240;DHT22;3661;53.288;10.458;2024-02-21T05:30:24;8.70;99.90
7240;DHT22;3661;53.288;10.458;2024-02-21T05:32:56;8.70;99.90
7240;DHT22;3661;53.288;10.458;2024-02-21T05:35:29;8.70;99.90
7240;DHT22;3661;53.288;10.458;2024-02-21T05:38:01;8.60;99.90
7240;DHT22;3661;53.288;10.458;2024-02-21T05:40:36;8.60;99.90
7240;DHT22;3661;53.288;10.458;2024-02-21T05:43:10;8.70;99.90
7240;DHT22;3661;53.288;10.458;2024-02-21T05:45:42;8.60;99.90
7240;DHT22;3661;53.288;10.458;2024-02-21T05:48:14;8.60;99.90
7240;DHT22;3661;53.288;10.458;2024-02-21T05:50:46;8.70;99.90
7240;DHT22;3661;53.288;10.458;2024-02-21T05:53:18;8.60;99.90
7240;DHT22;3661;53.288;10.458;2024-02-21T05:55:50;8.70;99.90
7240;DHT22;3661;53.288;10.458;2024-02-21T05:58:24;8.60;99.90
7240;DHT22;3661;53.288;10.458;2024-02-21T06:00:56;8.60;99.90
7240;DHT22;3661;53.288;10.458;2024-02-21T06:03:28;8.60;99.90
7240;DHT22;3661;53.288;10.458;2024-02-21T06:06:01;8.60;99.90
7240;DHT22;3661;53.288;10.458;2024-02-21T06:08:34;8.60;99.90
7240;DHT22;3661;53.288;10.458;2024-02-21T06:11:06;8.70;99.90
7240;DHT22;3661;53.288;10.458;2024-02-21T06:13:40;8.60;99.90
7240;DHT22;3661;53.288;10.458;2024-02-21T06:16:12;8.60;99.90
7240;DHT22;3661;53.288;10.458;2024-02-21T06:18:44;8.60;99.90
7240;DHT22;3661;53.288;10.458;2024-02-21T06:21:16;8.60;99.90
7240;DHT22;3661;53.288;10.458;2024-02-21T06:23:48;8.60;99.90
7240;DHT22;3661;53.288;10.458;2024-02-21T06:26:20;8.60;99.90
7240;DHT22;3661;53.288;10.458;2024-02-21T06:28:54;8.60;99.90
7240;DHT22;3661;53.288;10.458;2024-02-21T06:31:26;8.60;99.90
7240;DHT22;3661;53.288;10.458;2024-02-21T06:33:58;8.60;99.90
7240;DHT22;3661;53.288;10.458;2024-02-21T06:36:38;8.60;99.90
7240;DHT22;3661;53.288;10.458;2024-02-21T06:39:10;8.60;99.90
7240;DHT22;3661;53.288;10.458;2024-02-21T06:41:42;8.60;99.90
7240;DHT22;3661;53.288;10.458;2024-02-21T06:44:16;8.60;99.90
7240;DHT22;3661;53.288;10.458;2024-02-21T06:46:48;8.60;99.90
7240;DHT22;3661;53.288;10.458;2024-02-21T06:49:20;8.60;99.90
7240;DHT22;3661;53.288;10.458;2024-02-21T06:51:52;8.60;99.90
7240;DHT22;3661;53.288;10.458;2024-02-21T06:54:24;8.60;99.90
7240;DHT22;3661;53.288;10.458;2024-02-21T06:56:57;8.60;99.90
7240;DHT22;3661;53.288;10.458;2024-02-21T06:59:30;8.60;99.90
7240;DHT22;3661;53.288;10.458;2024-02-21T07:02:03;8.60;99.90
7240;DHT22;3661;53.288;10.458;2024-02-21T07:04:35;8.60;99.90
7240;DHT22;3661;53.288;10.458;2024-02-21T07:07:07;8.60;99.90
7240;DHT22;3661;53.288;10.458;2024-02-21T07:09:40;8.60;99.90
7240;DHT22;3661;53.288;10.458;2024-02-21T07:12:12;8.60;99.90
7240;DHT22;3661;53.288;10.458;2024-02-21T07:14:46;8.70;99.90
7240;DHT22;3661;53.288;10.458;2024-02-21T07:17:18;8.70;99.90
7240;DHT22;3661;53.288;10.458;2024-02-21T07:19:50;8.70;99.90
7240;DHT22;3661;53.288;10.458;2024-02-21T07:22:22;8.70;99.90
7240;DHT22;3661;53.288;10.458;2024-02-21T07:24:55;8.70;99.90
7240;DHT22;3661;53.288;10.458;2024-02-21T07:27:28;8.60;99.90
7240;DHT22;3661;53.288;10.458;2024-02-21T07:30:09;8.60;99.90
7240;DHT22;3661;53.288;10.458;2024-02-21T07:32:42;8.70;99.90
7240;DHT22;3661;53.288;10.458;2024-02-21T07:35:14;8.70;99.90
7240;DHT22;3661;53.288;10.458;2024-02-21T07:37:46;8.70;99.90
7240;DHT22;3661;53.288;10.458;2024-02-21T07:40:18;8.70;99.90
7240;DHT22;3661;53.288;10.458;2024-02-21T07:42:50;8.70;99.90
7240;DHT22;3661;53.288;10.458;2024-02-21T07:45:27;8.70;99.90
7240;DHT22;3661;53.288;10.458;2024-02-21T07:47:59;8.70;99.90
7240;DHT22;3661;53.288;10.458;2024-02-21T07:50:31;8.70;99.90
7240;DHT22;3661;53.288;10.458;2024-02-21T07:53:05;8.70;99.90
7240;DHT22;3661;53.288;10.458;2024-02-21T07:55:37;8.80;99.90
7240;DHT22;3661;53.288;10.458;2024-02-21T07:58:09;8.80;99.90
7240;DHT22;3661;53.288;10.458;2024-02-21T08:00:43;8.70;99.90
7240;DHT22;3661;53.288;10.458;2024-02-21T08:03:16;8.80;99.90
7240;DHT22;3661;53.288;10.458;2024-02-21T08:05:48;8.80;99.90
7240;DHT22;3661;53.288;10.458;2024-02-21T08:08:20;8.80;99.90
7240;DHT22;3661;53.288;10.458;2024-02-21T08:10:52;8.80;99.90
7240;DHT22;3661;53.288;10.458;2024-02-21T08:13:27;8.90;99.90
7240;DHT22;3661;53.288;10.458;2024-02-21T08:16:01;8.90;99.90
7240;DHT22;3661;53.288;10.458;2024-02-21T08:18:34;8.90;99.90
7240;DHT22;3661;53.288;10.458;2024-02-21T08:21:07;8.90;99.90
7240;DHT22;3661;53.288;10.458;2024-02-21T08:23:39;8.90;99.90
7240;DHT22;3661;53.288;10.458;2024-02-21T08:26:11;8.90;99.90
7240;DHT22;3661;53.288;10.458;2024-02-21T08:28:46;8.90;99.90
7240;DHT22;3661;53.288;10.458;2024-02-21T08:31:20;9.00;99.90
7240;DHT22;3661;53.288;10.458;2024-02-21T08:33:53;9.00;99.90
7240;DHT22;3661;53.288;10.458;2024-02-21T08:36:27;9.00;99.90
7240;DHT22;3661;53.288;10.458;2024-02-21T08:38:59;9.00;99.90
7240;DHT22;3661;53.288;10.458;2024-02-21T08:41:32;9.10;99.90
7240;DHT22;3661;53.288;10.458;2024-02-21T08:44:05;9.10;99.90
7240;DHT22;3661;53.288;10.458;2024-02-21T08:46:39;9.10;99.90
7240;DHT22;3661;53.288;10.458;2024-02-21T08:49:11;9.20;99.90
7240;DHT22;3661;53.288;10.458;2024-02-21T08:51:44;9.20;99.90
7240;DHT22;3661;53.288;10.458;2024-02-21T08:54:17;9.20;99.90
7240;DHT22;3661;53.288;10.458;2024-02-21T08:56:49;9.20;99.90
7240;DHT22;3661;53.288;10.458;2024-02-21T08:59:21;9.30;99.90
7240;DHT22;3661;53.288;10.458;2024-02-21T09:01:54;9.30;99.90
7240;DHT22;3661;53.288;10.458;2024-02-21T09:04:27;9.30;99.90
7240;DHT22;3661;53.288;10.458;2024-02-21T09:06:59;9.40;99.90
7240;DHT22;3661;53.288;10.458;2024-02-21T09:09:31;9.40;99.90
7240;DHT22;3661;53.288;10.458;2024-02-21T09:12:05;9.40;99.90
7240;DHT22;3661;53.288;10.458;2024-02-21T09:14:37;9.40;99.90
7240;DHT22;3661;53.288;10.458;2024-02-21T09:17:11;9.40;99.90
7240;DHT22;3661;53.288;10.458;2024-02-21T09:19:45;9.50;99.90
7240;DHT22;3661;53.288;10.458;2024-02-21T09:22:20;9.50;99.90
7240;DHT22;3661;53.288;10.458;2024-02-21T09:24:52;9.50;99.90
7240;DHT22;3661;53.288;10.458;2024-02-21T09:27:24;9.60;99.90
7240;DHT22;3661;53.288;10.458;2024-02-21T09:29:56;9.60;99.90
7240;DHT22;3661;53.288;10.458;2024-02-21T09:32:29;9.60;99.90
7240;DHT22;3661;53.288;10.458;2024-02-21T09:35:03;9.60;99.90
7240;DHT22;3661;53.288;10.458;2024-02-21T09:37:35;9.70;99.90
7240;DHT22;3661;53.288;10.458;2024-02-21T09:40:09;9.70;99.90
7240;DHT22;3661;53.288;10.458;2024-02-21T09:42:41;9.70;99.90
7240;DHT22;3661;53.288;10.458;2024-02-21T09:45:18;9.70;99.90
7240;DHT22;3661;53.288;10.458;2024-02-21T09:48:11;9.80;99.90
7240;DHT22;3661;53.288;10.458;2024-02-21T09:50:46;9.80;99.90
7240;DHT22;3661;53.288;10.458;2024-02-21T09:53:19;9.80;99.90
7240;DHT22;3661;53.288;10.458;2024-02-21T09:55:52;9.80;99.90
7240;DHT22;3661;53.288;10.458;2024-02-21T09:58:26;9.80;99.90
7240;DHT22;3661;53.288;10.458;2024-02-21T10:00:59;9.80;99.90
7240;DHT22;3661;53.288;10.458;2024-02-21T10:03:33;9.80;99.90
7240;DHT22;3661;53.288;10.458;2024-02-21T10:06:06;9.70;99.90
7240;DHT22;3661;53.288;10.458;2024-02-21T10:08:38;9.70;99.90
7240;DHT22;3661;53.288;10.458;2024-02-21T10:11:10;9.70;99.90
7240;DHT22;3661;53.288;10.458;2024-02-21T10:13:42;9.70;99.90
7240;DHT22;3661;53.288;10.458;2024-02-21T10:16:15;9.70;99.90
7240;DHT22;3661;53.288;10.458;2024-02-21T10:18:54;9.70;99.90
7240;DHT22;3661;53.288;10.458;2024-02-21T10:21:26;9.70;99.90
7240;DHT22;3661;53.288;10.458;2024-02-21T10:23:58;9.60;99.90
7240;DHT22;3661;53.288;10.458;2024-02-21T10:26:30;9.60;99.90
7240;DHT22;3661;53.288;10.458;2024-02-21T10:29:02;9.60;99.90
7240;DHT22;3661;53.288;10.458;2024-02-21T10:31:35;9.60;99.90
7240;DHT22;3661;53.288;10.458;2024-02-21T10:34:08;9.60;99.90
7240;DHT22;3661;53.288;10.458;2024-02-21T10:36:41;9.60;99.90
7240;DHT22;3661;53.288;10.458;2024-02-21T10:39:13;9.60;99.90
7240;DHT22;3661;53.288;10.458;2024-02-21T10:41:45;9.60;99.90
7240;DHT22;3661;53.288;10.458;2024-02-21T10:44:18;9.60;99.90
7240;DHT22;3661;53.288;10.458;2024-02-21T10:46:51;9.60;99.90
7240;DHT22;3661;53.288;10.458;2024-02-21T10:49:26;9.60;99.90
7240;DHT22;3661;53.288;10.458;2024-02-21T10:52:06;9.60;99.90
7240;DHT22;3661;53.288;10.458;2024-02-21T10:54:45;9.70;99.90
7240;DHT22;3661;53.288;10.458;2024-02-21T10:57:21;9.70;99.90
7240;DHT22;3661;53.288;10.458;2024-02-21T10:59:55;9.70;99.90
7240;DHT22;3661;53.288;10.458;2024-02-21T11:02:28;9.70;99.90
7240;DHT22;3661;53.288;10.458;2024-02-21T11:05:06;9.80;99.90
7240;DHT22;3661;53.288;10.458;2024-02-21T11:07:40;9.80;99.90
7240;DHT22;3661;53.288;10.458;2024-02-21T11:10:22;9.80;99.90
7240;DHT22;3661;53.288;10.458;2024-02-21T11:13:04;9.80;99.90
7240;DHT22;3661;53.288;10.458;2024-02-21T11:15:36;9.80;99.90
7240;DHT22;3661;53.288;10.458;2024-02-21T11:18:11;9.90;99.90
7240;DHT22;3661;53.288;10.458;2024-02-21T11:20:50;9.90;99.90
7240;DHT22;3661;53.288;10.458;2024-02-21T11:23:25;9.90;99.90
7240;DHT22;3661;53.288;10.458;2024-02-21T11:26:10;9.90;99.90
7240;DHT22;3661;53.288;10.458;2024-02-21T11:28:55;9.90;99.90
7240;DHT22;3661;53.288;10.458;2024-02-21T11:31:27;10.00;99.90
7240;DHT22;3661;53.288;10.458;2024-02-21T11:34:13;10.00;99.90
7240;DHT22;3661;53.288;10.458;2024-02-21T11:36:51;10.00;99.90
7240;DHT22;3661;53.288;10.458;2024-02-21T11:39:40;10.00;99.90
7240;DHT22;3661;53.288;10.458;2024-02-21T11:42:21;10.00;99.90
7240;DHT22;3661;53.288;10.458;2024-02-21T11:44:54;10.00;99.90
7240;DHT22;3661;53.288;10.458;2024-02-21T11:47:28;10.00;99.90
7240;DHT22;3661;53.288;10.458;2024-02-21T11:50:01;10.00;99.90
7240;DHT22;3661;53.288;10.458;2024-02-21T11:52:35;9.90;99.90
7240;DHT22;3661;53.288;10.458;2024-02-21T11:55:07;9.90;99.90
7240;DHT22;3661;53.288;10.458;2024-02-21T11:57:40;9.90;99.90
7240;DHT22;3661;53.288;10.458;2024-02-21T12:00:16;9.90;99.90
7240;DHT22;3661;53.288;10.458;2024-02-21T12:02:51;9.90;99.90
7240;DHT22;3661;53.288;10.458;2024-02-21T12:05:28;9.90;99.90
7240;DHT22;3661;53.288;10.458;2024-02-21T12:08:06;9.90;99.90
7240;DHT22;3661;53.288;10.458;2024-02-21T12:10:38;9.80;99.90
7240;DHT22;3661;53.288;10.458;2024-02-21T12:13:11;9.80;99.90
7240;DHT22;3661;53.288;10.458;2024-02-21T12:15:47;9.80;99.90
7240;DHT22;3661;53.288;10.458;2024-02-21T12:18:20;9.80;99.90
7240;DHT22;3661;53.288;10.458;2024-02-21T12:20:53;9.80;99.90
7240;DHT22;3661;53.288;10.458;2024-02-21T12:23:32;9.80;99.90
7240;DHT22;3661;53.288;10.458;2024-02-21T12:26:04;9.80;99.90
7240;DHT22;3661;53.288;10.458;2024-02-21T12:28:36;9.80;99.90
7240;DHT22;3661;53.288;10.458;2024-02-21T12:31:08;9.80;99.90
7240;DHT22;3661;53.288;10.458;2024-02-21T12:33:40;9.80;99.90
7240;DHT22;3661;53.288;10.458;2024-02-21T12:36:13;9.80;99.90
7240;DHT22;3661;53.288;10.458;2024-02-21T12:38:47;9.80;99.90
7240;DHT22;3661;53.288;10.458;2024-02-21T12:41:24;9.80;99.90
7240;DHT22;3661;53.288;10.458;2024-02-21T12:43:57;9.70;99.90
7240;DHT22;3661;53.288;10.458;2024-02-21T12:46:29;9.70;99.90
7240;DHT22;3661;53.288;10.458;2024-02-21T12:49:03;9.80;99.90
7240;DHT22;3661;53.288;10.458;2024-02-21T12:51:36;9.70;99.90
7240;DHT22;3661;53.288;10.458;2024-02-21T12:54:11;9.80;99.90
7240;DHT22;3661;53.288;10.458;2024-02-21T12:56:43;9.70;99.90
7240;DHT22;3661;53.288;10.458;2024-02-21T12:59:18;9.70;99.90
7240;DHT22;3661;53.288;10.458;2024-02-21T13:01:50;9.80;99.90
7240;DHT22;3661;53.288;10.458;2024-02-21T13:04:23;9.80;99.90
7240;DHT22;3661;53.288;10.458;2024-02-21T13:06:55;9.80;99.90
7240;DHT22;3661;53.288;10.458;2024-02-21T13:09:28;9.80;99.90
7240;DHT22;3661;53.288;10.458;2024-02-21T13:12:02;9.80;99.90
7240;DHT22;3661;53.288;10.458;2024-02-21T13:14:34;9.80;99.90
7240;DHT22;3661;53.288;10.458;2024-02-21T13:17:09;9.80;99.90
7240;DHT22;3661;53.288;10.458;2024-02-21T13:19:41;9.80;99.90
7240;DHT22;3661;53.288;10.458;2024-02-21T13:22:13;9.80;99.90
7240;DHT22;3661;53.288;10.458;2024-02-21T13:24:48;9.80;99.90
7240;DHT22;3661;53.288;10.458;2024-02-21T13:27:20;9.90;99.90
7240;DHT22;3661;53.288;10.458;2024-02-21T13:29:52;9.90;99.90
7240;DHT22;3661;53.288;10.458;2024-02-21T13:32:24;9.90;99.90
7240;DHT22;3661;53.288;10.458;2024-02-21T13:34:56;9.90;99.90
7240;DHT22;3661;53.288;10.458;2024-02-21T13:37:32;9.90;99.90
7240;DHT22;3661;53.288;10.458;2024-02-21T13:40:06;9.90;99.90
7240;DHT22;3661;53.288;10.458;2024-02-21T13:42:40;10.00;99.90
7240;DHT22;3661;53.288;10.458;2024-02-21T13:45:12;10.00;99.90
7240;DHT22;3661;53.288;10.458;2024-02-21T13:47:44;10.00;99.90
7240;DHT22;3661;53.288;10.458;2024-02-21T13:50:17;10.10;99.90
7240;DHT22;3661;53.288;10.458;2024-02-21T13:52:50;10.10;99.90
7240;DHT22;3661;53.288;10.458;2024-02-21T13:55:26;10.10;99.90
7240;DHT22;3661;53.288;10.458;2024-02-21T13:57:59;10.10;99.90
7240;DHT22;3661;53.288;10.458;2024-02-21T14:00:31;10.20;99.90
7240;DHT22;3661;53.288;10.458;2024-02-21T14:03:05;10.20;99.90
7240;DHT22;3661;53.288;10.458;2024-02-21T14:05:37;10.20;99.90
7240;DHT22;3661;53.288;10.458;2024-02-21T14:08:10;10.20;99.90
7240;DHT22;3661;53.288;10.458;2024-02-21T14:10:44;10.20;99.90
7240;DHT22;3661;53.288;10.458;2024-02-21T14:13:16;10.30;99.90
7240;DHT22;3661;53.288;10.458;2024-02-21T14:15:49;10.30;99.90
7240;DHT22;3661;53.288;10.458;2024-02-21T14:18:21;10.30;99.90
7240;DHT22;3661;53.288;10.458;2024-02-21T14:20:53;10.30;99.90
7240;DHT22;3661;53.288;10.458;2024-02-21T14:23:26;10.30;99.90
7240;DHT22;3661;53.288;10.458;2024-02-21T14:26:00;10.30;99.90
7240;DHT22;3661;53.288;10.458;2024-02-21T14:28:33;10.30;99.90
7240;DHT22;3661;53.288;10.458;2024-02-21T14:31:06;10.30;99.90
7240;DHT22;3661;53.288;10.458;2024-02-21T14:33:40;10.40;99.90
7240;DHT22;3661;53.288;10.458;2024-02-21T14:36:12;10.40;99.90
7240;DHT22;3661;53.288;10.458;2024-02-21T14:38:45;10.40;99.90
7240;DHT22;3661;53.288;10.458;2024-02-21T14:41:19;10.40;99.90
7240;DHT22;3661;53.288;10.458;2024-02-21T14:43:51;10.40;99.90
7240;DHT22;3661;53.288;10.458;2024-02-21T14:46:23;10.40;99.90
7240;DHT22;3661;53.288;10.458;2024-02-21T14:48:55;10.40;99.90
7240;DHT22;3661;53.288;10.458;2024-02-21T14:51:28;10.40;99.90
7240;DHT22;3661;53.288;10.458;2024-02-21T14:54:01;10.50;99.90
7240;DHT22;3661;53.288;10.458;2024-02-21T14:56:34;10.50;99.90
7240;DHT22;3661;53.288;10.458;2024-02-21T14:59:06;10.50;99.90
7240;DHT22;3661;53.288;10.458;2024-02-21T15:01:39;10.50;99.90
7240;DHT22;3661;53.288;10.458;2024-02-21T15:04:11;10.50;99.90
7240;DHT22;3661;53.288;10.458;2024-02-21T15:06:43;10.50;99.90
7240;DHT22;3661;53.288;10.458;2024-02-21T15:09:15;10.50;99.90
7240;DHT22;3661;53.288;10.458;2024-02-21T15:11:51;10.40;99.90
7240;DHT22;3661;53.288;10.458;2024-02-21T15:14:23;10.40;99.90
7240;DHT22;3661;53.288;10.458;2024-02-21T15:16:55;10.40;99.90
7240;DHT22;3661;53.288;10.458;2024-02-21T15:19:27;10.40;99.90
7240;DHT22;3661;53.288;10.458;2024-02-21T15:22:00;10.40;99.90
7240;DHT22;3661;53.288;10.458;2024-02-21T15:24:32;10.40;99.90
7240;DHT22;3661;53.288;10.458;2024-02-21T15:27:06;10.40;99.90
7240;DHT22;3661;53.288;10.458;2024-02-21T15:29:38;10.40;99.90
7240;DHT22;3661;53.288;10.458;2024-02-21T15:32:11;10.40;99.90
7240;DHT22;3661;53.288;10.458;2024-02-21T15:34:43;10.30;99.90
7240;DHT22;3661;53.288;10.458;2024-02-21T15:37:15;10.30;99.90
7240;DHT22;3661;53.288;10.458;2024-02-21T15:39:47;10.30;99.90
7240;DHT22;3661;53.288;10.458;2024-02-21T15:42:20;10.30;99.90
7240;DHT22;3661;53.288;10.458;2024-02-21T15:44:53;10.30;99.90
7240;DHT22;3661;53.288;10.458;2024-02-21T15:47:25;10.30;99.90
7240;DHT22;3661;53.288;10.458;2024-02-21T15:49:58;10.20;99.90
7240;DHT22;3661;53.288;10.458;2024-02-21T15:52:31;10.20;99.90
7240;DHT22;3661;53.288;10.458;2024-02-21T15:55:04;10.20;99.90
7240;DHT22;3661;53.288;10.458;2024-02-21T15:57:39;10.20;99.90
7240;DHT22;3661;53.288;10.458;2024-02-21T16:00:12;10.10;99.90
7240;DHT22;3661;53.288;10.458;2024-02-21T16:02:44;10.10;99.90
7240;DHT22;3661;53.288;10.458;2024-02-21T16:05:17;10.10;99.90
7240;DHT22;3661;53.288;10.458;2024-02-21T16:07:49;10.10;99.90
7240;DHT22;3661;53.288;10.458;2024-02-21T16:10:22;10.00;99.90
7240;DHT22;3661;53.288;10.458;2024-02-21T16:12:56;10.00;99.90
7240;DHT22;3661;53.288;10.458;2024-02-21T16:15:29;9.90;99.90
7240;DHT22;3661;53.288;10.458;2024-02-21T16:18:01;9.90;99.90
7240;DHT22;3661;53.288;10.458;2024-02-21T16:20:33;9.90;99.90
7240;DHT22;3661;53.288;10.458;2024-02-21T16:23:05;9.80;99.90
7240;DHT22;3661;53.288;10.458;2024-02-21T16:25:39;9.80;99.90
7240;DHT22;3661;53.288;10.458;2024-02-21T16:28:12;9.80;99.90
7240;DHT22;3661;53.288;10.458;2024-02-21T16:30:44;9.70;99.90
7240;DHT22;3661;53.288;10.458;2024-02-21T16:33:17;9.70;99.90
7240;DHT22;3661;53.288;10.458;2024-02-21T16:35:49;9.70;99.90
7240;DHT22;3661;53.288;10.458;2024-02-21T16:38:21;9.60;99.90